sensor_id;sensor_type;location;lat;lon;timestamp;P1;durP1;ratioP1;P2;durP2;ratioP2
31537;SDS011;18147;51.952;6.146;2023-06-04T00:00:05;3.85;;;2.28;;
31537;SDS011;18147;51.952;6.146;2023-06-04T00:02:35;8.77;;;2.50;;
31537;SDS011;18147;51.952;6.146;2023-06-04T00:05:01;7.40;;;2.50;;
31537;SDS011;18147;51.952;6.146;2023-06-04T00:07:27;3.97;;;2.25;;
31537;SDS011;18147;51.952;6.146;2023-06-04T00:09:53;3.50;;;2.22;;
31537;SDS011;18147;51.952;6.146;2023-06-04T00:12:18;6.20;;;2.35;;
31537;SDS011;18147;51.952;6.146;2023-06-04T00:14:44;5.10;;;2.45;;
31537;SDS011;18147;51.952;6.146;2023-06-04T00:17:10;4.88;;;2.22;;
31537;SDS011;18147;51.952;6.146;2023-06-04T00:19:39;3.22;;;2.15;;
31537;SDS011;18147;51.952;6.146;2023-06-04T00:22:07;6.38;;;2.85;;
31537;SDS011;18147;51.952;6.146;2023-06-04T00:24:37;6.90;;;2.20;;
31537;SDS011;18147;51.952;6.146;2023-06-04T00:27:08;5.07;;;2.53;;
31537;SDS011;18147;51.952;6.146;2023-06-04T00:29:35;5.40;;;2.30;;
31537;SDS011;18147;51.952;6.146;2023-06-04T00:32:02;4.38;;;2.40;;
31537;SDS011;18147;51.952;6.146;2023-06-04T00:34:29;5.88;;;2.72;;
31537;SDS011;18147;51.952;6.146;2023-06-04T00:36:55;7.78;;;2.90;;
31537;SDS011;18147;51.952;6.146;2023-06-04T00:39:20;5.15;;;2.20;;
31537;SDS011;18147;51.952;6.146;2023-06-04T00:41:46;2.92;;;2.33;;
31537;SDS011;18147;51.952;6.146;2023-06-04T00:44:12;6.45;;;2.40;;
31537;SDS011;18147;51.952;6.146;2023-06-04T00:46:39;7.85;;;3.35;;
31537;SDS011;18147;51.952;6.146;2023-06-04T00:49:08;7.22;;;2.55;;
31537;SDS011;18147;51.952;6.146;2023-06-04T00:51:39;7.28;;;2.83;;
31537;SDS011;18147;51.952;6.146;2023-06-04T00:54:06;5.82;;;2.65;;
31537;SDS011;18147;51.952;6.146;2023-06-04T00:56:37;5.07;;;2.70;;
31537;SDS011;18147;51.952;6.146;2023-06-04T00:59:09;8.63;;;2.85;;
31537;SDS011;18147;51.952;6.146;2023-06-04T01:01:49;6.93;;;3.00;;
31537;SDS011;18147;51.952;6.146;2023-06-04T01:07:11;5.40;;;2.78;;
31537;SDS011;18147;51.952;6.146;2023-06-04T01:09:41;8.35;;;3.00;;
31537;SDS011;18147;51.952;6.146;2023-06-04T01:12:09;3.28;;;2.55;;
31537;SDS011;18147;51.952;6.146;2023-06-04T01:14:36;6.88;;;2.97;;
31537;SDS011;18147;51.952;6.146;2023-06-04T01:24:41;6.47;;;2.55;;
31537;SDS011;18147;51.952;6.146;2023-06-04T01:27:16;4.68;;;2.90;;
31537;SDS011;18147;51.952;6.146;2023-06-04T01:29:43;6.55;;;3.28;;
31537;SDS011;18147;51.952;6.146;2023-06-04T01:32:10;4.88;;;2.83;;
31537;SDS011;18147;51.952;6.146;2023-06-04T01:34:43;5.53;;;2.90;;
31537;SDS011;18147;51.952;6.146;2023-06-04T01:37:10;8.95;;;2.72;;
31537;SDS011;18147;51.952;6.146;2023-06-04T01:39:37;7.53;;;2.83;;
31537;SDS011;18147;51.952;6.146;2023-06-04T01:42:02;5.95;;;2.75;;
31537;SDS011;18147;51.952;6.146;2023-06-04T01:44:28;4.65;;;2.97;;
31537;SDS011;18147;51.952;6.146;2023-06-04T01:46:55;5.70;;;3.50;;
31537;SDS011;18147;51.952;6.146;2023-06-04T01:49:20;3.92;;;3.03;;
31537;SDS011;18147;51.952;6.146;2023-06-04T01:51:46;7.15;;;3.03;;
31537;SDS011;18147;51.952;6.146;2023-06-04T01:54:12;5.13;;;2.83;;
31537;SDS011;18147;51.952;6.146;2023-06-04T01:56:38;6.72;;;3.47;;
31537;SDS011;18147;51.952;6.146;2023-06-04T01:59:06;4.53;;;3.20;;
31537;SDS011;18147;51.952;6.146;2023-06-04T02:01:37;7.00;;;3.08;;
31537;SDS011;18147;51.952;6.146;2023-06-04T02:04:05;4.85;;;2.90;;
31537;SDS011;18147;51.952;6.146;2023-06-04T02:06:30;6.28;;;3.33;;
31537;SDS011;18147;51.952;6.146;2023-06-04T02:08:57;6.43;;;3.20;;
31537;SDS011;18147;51.952;6.146;2023-06-04T02:11:22;4.88;;;3.17;;
31537;SDS011;18147;51.952;6.146;2023-06-04T02:13:48;5.47;;;2.70;;
31537;SDS011;18147;51.952;6.146;2023-06-04T02:16:13;10.80;;;3.35;;
31537;SDS011;18147;51.952;6.146;2023-06-04T02:18:40;4.60;;;2.90;;
31537;SDS011;18147;51.952;6.146;2023-06-04T02:21:07;5.35;;;3.22;;
31537;SDS011;18147;51.952;6.146;2023-06-04T02:23:37;3.63;;;2.75;;
31537;SDS011;18147;51.952;6.146;2023-06-04T02:26:05;6.07;;;3.33;;
31537;SDS011;18147;51.952;6.146;2023-06-04T02:28:36;5.82;;;3.30;;
31537;SDS011;18147;51.952;6.146;2023-06-04T02:31:04;7.45;;;3.33;;
31537;SDS011;18147;51.952;6.146;2023-06-04T02:33:30;5.93;;;3.22;;
31537;SDS011;18147;51.952;6.146;2023-06-04T02:35:55;4.68;;;3.60;;
31537;SDS011;18147;51.952;6.146;2023-06-04T02:38:21;8.93;;;3.33;;
31537;SDS011;18147;51.952;6.146;2023-06-04T02:40:47;6.97;;;3.17;;
31537;SDS011;18147;51.952;6.146;2023-06-04T02:43:15;5.05;;;3.40;;
31537;SDS011;18147;51.952;6.146;2023-06-04T02:45:42;7.60;;;3.75;;
31537;SDS011;18147;51.952;6.146;2023-06-04T02:48:09;8.52;;;3.35;;
31537;SDS011;18147;51.952;6.146;2023-06-04T02:50:35;6.07;;;2.90;;
31537;SDS011;18147;51.952;6.146;2023-06-04T02:53:02;9.65;;;3.67;;
31537;SDS011;18147;51.952;6.146;2023-06-04T02:55:28;8.25;;;3.25;;
31537;SDS011;18147;51.952;6.146;2023-06-04T02:57:54;5.00;;;2.85;;
31537;SDS011;18147;51.952;6.146;2023-06-04T03:00:19;10.82;;;3.83;;
31537;SDS011;18147;51.952;6.146;2023-06-04T03:02:45;8.85;;;3.60;;
31537;SDS011;18147;51.952;6.146;2023-06-04T03:05:12;6.75;;;3.30;;
31537;SDS011;18147;51.952;6.146;2023-06-04T03:07:42;7.50;;;3.17;;
31537;SDS011;18147;51.952;6.146;2023-06-04T03:10:11;7.38;;;3.50;;
31537;SDS011;18147;51.952;6.146;2023-06-04T03:12:37;5.28;;;3.17;;
31537;SDS011;18147;51.952;6.146;2023-06-04T03:15:06;5.35;;;3.15;;
31537;SDS011;18147;51.952;6.146;2023-06-04T03:17:34;7.78;;;3.63;;
31537;SDS011;18147;51.952;6.146;2023-06-04T03:20:00;3.95;;;2.97;;
31537;SDS011;18147;51.952;6.146;2023-06-04T03:22:29;6.82;;;3.30;;
31537;SDS011;18147;51.952;6.146;2023-06-04T03:24:55;6.95;;;4.53;;
31537;SDS011;18147;51.952;6.146;2023-06-04T03:27:20;6.07;;;3.67;;
31537;SDS011;18147;51.952;6.146;2023-06-04T03:29:46;5.43;;;3.80;;
31537;SDS011;18147;51.952;6.146;2023-06-04T03:32:13;6.55;;;3.90;;
31537;SDS011;18147;51.952;6.146;2023-06-04T03:34:42;6.95;;;3.78;;
31537;SDS011;18147;51.952;6.146;2023-06-04T03:37:10;5.13;;;3.50;;
31537;SDS011;18147;51.952;6.146;2023-06-04T03:39:36;8.23;;;4.10;;
31537;SDS011;18147;51.952;6.146;2023-06-04T03:42:04;9.68;;;3.60;;
31537;SDS011;18147;51.952;6.146;2023-06-04T03:44:32;5.45;;;3.35;;
31537;SDS011;18147;51.952;6.146;2023-06-04T03:46:58;6.57;;;3.60;;
31537;SDS011;18147;51.952;6.146;2023-06-04T03:49:25;10.20;;;3.42;;
31537;SDS011;18147;51.952;6.146;2023-06-04T03:51:50;6.97;;;3.47;;
31537;SDS011;18147;51.952;6.146;2023-06-04T03:54:17;7.47;;;3.30;;
31537;SDS011;18147;51.952;6.146;2023-06-04T03:56:45;7.63;;;3.88;;
31537;SDS011;18147;51.952;6.146;2023-06-04T03:59:12;6.07;;;3.30;;
31537;SDS011;18147;51.952;6.146;2023-06-04T04:01:38;5.95;;;3.15;;
31537;SDS011;18147;51.952;6.146;2023-06-04T04:04:05;6.05;;;3.53;;
31537;SDS011;18147;51.952;6.146;2023-06-04T04:06:35;6.88;;;3.53;;
31537;SDS011;18147;51.952;6.146;2023-06-04T04:09:05;7.28;;;3.40;;
31537;SDS011;18147;51.952;6.146;2023-06-04T04:11:33;5.18;;;3.35;;
31537;SDS011;18147;51.952;6.146;2023-06-04T04:14:01;8.50;;;3.50;;
31537;SDS011;18147;51.952;6.146;2023-06-04T04:16:27;4.00;;;3.40;;
31537;SDS011;18147;51.952;6.146;2023-06-04T04:18:53;7.05;;;3.50;;
31537;SDS011;18147;51.952;6.146;2023-06-04T04:21:19;7.70;;;3.58;;
31537;SDS011;18147;51.952;6.146;2023-06-04T04:23:46;8.13;;;3.88;;
31537;SDS011;18147;51.952;6.146;2023-06-04T04:26:12;5.97;;;3.35;;
31537;SDS011;18147;51.952;6.146;2023-06-04T04:31:10;6.93;;;3.50;;
31537;SDS011;18147;51.952;6.146;2023-06-04T04:33:37;10.27;;;3.70;;
31537;SDS011;18147;51.952;6.146;2023-06-04T04:36:11;4.50;;;3.13;;
31537;SDS011;18147;51.952;6.146;2023-06-04T04:38:45;5.35;;;3.40;;
31537;SDS011;18147;51.952;6.146;2023-06-04T04:41:11;9.35;;;3.80;;
31537;SDS011;18147;51.952;6.146;2023-06-04T04:43:38;11.00;;;4.07;;
31537;SDS011;18147;51.952;6.146;2023-06-04T04:46:17;7.35;;;3.88;;
31537;SDS011;18147;51.952;6.146;2023-06-04T04:48:44;5.82;;;3.63;;
31537;SDS011;18147;51.952;6.146;2023-06-04T04:51:11;6.93;;;4.10;;
31537;SDS011;18147;51.952;6.146;2023-06-04T04:53:37;7.13;;;3.50;;
31537;SDS011;18147;51.952;6.146;2023-06-04T04:56:05;8.52;;;3.72;;
31537;SDS011;18147;51.952;6.146;2023-06-04T04:58:35;3.72;;;3.35;;
31537;SDS011;18147;51.952;6.146;2023-06-04T05:01:02;6.00;;;4.00;;
31537;SDS011;18147;51.952;6.146;2023-06-04T05:03:27;5.32;;;3.95;;
31537;SDS011;18147;51.952;6.146;2023-06-04T05:05:53;8.00;;;4.30;;
31537;SDS011;18147;51.952;6.146;2023-06-04T05:08:19;8.77;;;4.35;;
31537;SDS011;18147;51.952;6.146;2023-06-04T05:10:45;12.13;;;4.10;;
31537;SDS011;18147;51.952;6.146;2023-06-04T05:13:11;6.05;;;3.50;;
31537;SDS011;18147;51.952;6.146;2023-06-04T05:15:42;9.02;;;4.47;;
31537;SDS011;18147;51.952;6.146;2023-06-04T05:18:09;6.55;;;3.60;;
31537;SDS011;18147;51.952;6.146;2023-06-04T05:20:37;9.80;;;4.35;;
31537;SDS011;18147;51.952;6.146;2023-06-04T05:23:09;7.50;;;4.30;;
31537;SDS011;18147;51.952;6.146;2023-06-04T05:25:38;5.43;;;4.13;;
31537;SDS011;18147;51.952;6.146;2023-06-04T05:28:10;6.90;;;3.80;;
31537;SDS011;18147;51.952;6.146;2023-06-04T05:30:39;5.93;;;4.13;;
31537;SDS011;18147;51.952;6.146;2023-06-04T05:33:11;6.88;;;3.78;;
31537;SDS011;18147;51.952;6.146;2023-06-04T05:35:47;8.90;;;4.03;;
31537;SDS011;18147;51.952;6.146;2023-06-04T05:38:13;5.80;;;3.70;;
31537;SDS011;18147;51.952;6.146;2023-06-04T05:40:43;9.20;;;3.55;;
31537;SDS011;18147;51.952;6.146;2023-06-04T05:43:10;8.43;;;3.70;;
31537;SDS011;18147;51.952;6.146;2023-06-04T05:45:37;6.32;;;3.75;;
31537;SDS011;18147;51.952;6.146;2023-06-04T05:48:03;5.82;;;3.80;;
31537;SDS011;18147;51.952;6.146;2023-06-04T05:50:30;8.05;;;4.20;;
31537;SDS011;18147;51.952;6.146;2023-06-04T05:52:56;7.90;;;4.10;;
31537;SDS011;18147;51.952;6.146;2023-06-04T05:55:22;6.60;;;3.90;;
31537;SDS011;18147;51.952;6.146;2023-06-04T05:57:49;6.85;;;3.60;;
31537;SDS011;18147;51.952;6.146;2023-06-04T06:00:19;5.68;;;3.60;;
31537;SDS011;18147;51.952;6.146;2023-06-04T06:02:50;8.45;;;3.80;;
31537;SDS011;18147;51.952;6.146;2023-06-04T06:05:37;8.10;;;4.18;;
31537;SDS011;18147;51.952;6.146;2023-06-04T06:08:07;8.75;;;4.10;;
31537;SDS011;18147;51.952;6.146;2023-06-04T06:10:37;5.95;;;3.88;;
31537;SDS011;18147;51.952;6.146;2023-06-04T06:13:02;5.72;;;3.80;;
31537;SDS011;18147;51.952;6.146;2023-06-04T06:15:28;9.95;;;4.50;;
31537;SDS011;18147;51.952;6.146;2023-06-04T06:17:54;8.60;;;3.83;;
31537;SDS011;18147;51.952;6.146;2023-06-04T06:20:20;6.32;;;3.65;;
31537;SDS011;18147;51.952;6.146;2023-06-04T06:22:47;10.68;;;3.90;;
31537;SDS011;18147;51.952;6.146;2023-06-04T06:25:14;9.88;;;4.20;;
31537;SDS011;18147;51.952;6.146;2023-06-04T06:27:46;7.10;;;4.22;;
31537;SDS011;18147;51.952;6.146;2023-06-04T06:30:17;12.88;;;4.35;;
31537;SDS011;18147;51.952;6.146;2023-06-04T06:32:43;6.93;;;3.55;;
31537;SDS011;18147;51.952;6.146;2023-06-04T06:35:10;6.50;;;3.88;;
31537;SDS011;18147;51.952;6.146;2023-06-04T06:37:35;8.35;;;3.92;;
31537;SDS011;18147;51.952;6.146;2023-06-04T06:40:07;4.93;;;3.33;;
31537;SDS011;18147;51.952;6.146;2023-06-04T06:42:35;6.65;;;4.22;;
31537;SDS011;18147;51.952;6.146;2023-06-04T06:45:02;10.13;;;5.00;;
31537;SDS011;18147;51.952;6.146;2023-06-04T06:47:28;5.85;;;3.72;;
31537;SDS011;18147;51.952;6.146;2023-06-04T06:49:54;6.13;;;4.03;;
31537;SDS011;18147;51.952;6.146;2023-06-04T06:52:20;8.38;;;4.35;;
31537;SDS011;18147;51.952;6.146;2023-06-04T06:54:45;9.85;;;4.30;;
31537;SDS011;18147;51.952;6.146;2023-06-04T06:57:12;6.00;;;4.00;;
31537;SDS011;18147;51.952;6.146;2023-06-04T06:59:41;7.20;;;4.10;;
31537;SDS011;18147;51.952;6.146;2023-06-04T07:02:09;8.10;;;3.85;;
31537;SDS011;18147;51.952;6.146;2023-06-04T07:04:36;7.97;;;3.67;;
31537;SDS011;18147;51.952;6.146;2023-06-04T07:07:03;10.18;;;4.47;;
31537;SDS011;18147;51.952;6.146;2023-06-04T07:09:29;11.00;;;4.07;;
31537;SDS011;18147;51.952;6.146;2023-06-04T07:11:54;11.18;;;3.85;;
31537;SDS011;18147;51.952;6.146;2023-06-04T07:14:20;8.23;;;4.20;;
31537;SDS011;18147;51.952;6.146;2023-06-04T07:16:46;6.35;;;4.32;;
31537;SDS011;18147;51.952;6.146;2023-06-04T07:19:12;6.35;;;3.58;;
31537;SDS011;18147;51.952;6.146;2023-06-04T07:21:37;10.98;;;4.38;;
31537;SDS011;18147;51.952;6.146;2023-06-04T07:24:06;9.07;;;4.10;;
31537;SDS011;18147;51.952;6.146;2023-06-04T07:26:36;9.52;;;4.93;;
31537;SDS011;18147;51.952;6.146;2023-06-04T07:29:02;9.02;;;4.13;;
31537;SDS011;18147;51.952;6.146;2023-06-04T07:31:28;7.45;;;4.00;;
31537;SDS011;18147;51.952;6.146;2023-06-04T07:33:53;8.48;;;3.90;;
31537;SDS011;18147;51.952;6.146;2023-06-04T07:36:19;10.15;;;4.30;;
31537;SDS011;18147;51.952;6.146;2023-06-04T07:38:45;9.60;;;4.35;;
31537;SDS011;18147;51.952;6.146;2023-06-04T07:41:11;8.23;;;4.15;;
31537;SDS011;18147;51.952;6.146;2023-06-04T07:43:37;6.00;;;3.85;;
31537;SDS011;18147;51.952;6.146;2023-06-04T07:46:05;9.85;;;4.40;;
31537;SDS011;18147;51.952;6.146;2023-06-04T07:48:31;5.60;;;4.00;;
31537;SDS011;18147;51.952;6.146;2023-06-04T07:51:00;9.40;;;4.35;;
31537;SDS011;18147;51.952;6.146;2023-06-04T07:53:28;9.55;;;4.00;;
31537;SDS011;18147;51.952;6.146;2023-06-04T07:55:54;13.82;;;4.85;;
31537;SDS011;18147;51.952;6.146;2023-06-04T07:58:22;6.93;;;4.35;;
31537;SDS011;18147;51.952;6.146;2023-06-04T08:00:48;7.00;;;3.50;;
31537;SDS011;18147;51.952;6.146;2023-06-04T08:03:14;8.15;;;3.83;;
31537;SDS011;18147;51.952;6.146;2023-06-04T08:05:41;6.72;;;3.90;;
31537;SDS011;18147;51.952;6.146;2023-06-04T08:08:10;7.57;;;4.53;;
31537;SDS011;18147;51.952;6.146;2023-06-04T08:10:38;5.40;;;3.63;;
31537;SDS011;18147;51.952;6.146;2023-06-04T08:13:07;10.73;;;3.80;;
31537;SDS011;18147;51.952;6.146;2023-06-04T08:15:37;5.85;;;3.85;;
31537;SDS011;18147;51.952;6.146;2023-06-04T08:18:07;8.35;;;3.75;;
31537;SDS011;18147;51.952;6.146;2023-06-04T08:20:35;6.63;;;3.65;;
31537;SDS011;18147;51.952;6.146;2023-06-04T08:23:02;10.15;;;3.22;;
31537;SDS011;18147;51.952;6.146;2023-06-04T08:25:28;6.60;;;3.60;;
31537;SDS011;18147;51.952;6.146;2023-06-04T08:27:55;10.32;;;4.57;;
31537;SDS011;18147;51.952;6.146;2023-06-04T08:30:20;7.25;;;3.65;;
31537;SDS011;18147;51.952;6.146;2023-06-04T08:32:47;8.93;;;4.80;;
31537;SDS011;18147;51.952;6.146;2023-06-04T08:35:13;6.47;;;3.47;;
31537;SDS011;18147;51.952;6.146;2023-06-04T08:37:40;6.90;;;3.30;;
31537;SDS011;18147;51.952;6.146;2023-06-04T08:40:07;7.82;;;3.50;;
31537;SDS011;18147;51.952;6.146;2023-06-04T08:42:41;7.63;;;3.45;;
31537;SDS011;18147;51.952;6.146;2023-06-04T08:45:10;4.28;;;2.42;;
31537;SDS011;18147;51.952;6.146;2023-06-04T08:47:40;12.35;;;3.90;;
31537;SDS011;18147;51.952;6.146;2023-06-04T08:50:10;5.80;;;3.60;;
31537;SDS011;18147;51.952;6.146;2023-06-04T08:52:37;4.28;;;3.20;;
31537;SDS011;18147;51.952;6.146;2023-06-04T08:55:13;8.18;;;3.25;;
31537;SDS011;18147;51.952;6.146;2023-06-04T08:57:42;5.95;;;3.10;;
31537;SDS011;18147;51.952;6.146;2023-06-04T09:00:08;5.60;;;2.70;;
31537;SDS011;18147;51.952;6.146;2023-06-04T09:02:37;5.70;;;2.65;;
31537;SDS011;18147;51.952;6.146;2023-06-04T09:05:07;3.42;;;2.67;;
31537;SDS011;18147;51.952;6.146;2023-06-04T09:07:38;6.82;;;2.50;;
31537;SDS011;18147;51.952;6.146;2023-06-04T09:10:10;6.18;;;2.65;;
31537;SDS011;18147;51.952;6.146;2023-06-04T09:12:42;5.20;;;2.67;;
31537;SDS011;18147;51.952;6.146;2023-06-04T09:15:12;5.75;;;2.35;;
31537;SDS011;18147;51.952;6.146;2023-06-04T09:17:38;6.43;;;2.50;;
31537;SDS011;18147;51.952;6.146;2023-06-04T09:20:07;3.47;;;1.90;;
31537;SDS011;18147;51.952;6.146;2023-06-04T09:22:43;3.95;;;2.30;;
31537;SDS011;18147;51.952;6.146;2023-06-04T09:25:19;4.50;;;2.40;;
31537;SDS011;18147;51.952;6.146;2023-06-04T09:27:46;5.97;;;1.98;;
31537;SDS011;18147;51.952;6.146;2023-06-04T09:30:11;10.40;;;2.50;;
31537;SDS011;18147;51.952;6.146;2023-06-04T09:32:37;4.18;;;2.40;;
31537;SDS011;18147;51.952;6.146;2023-06-04T09:35:11;5.18;;;1.90;;
31537;SDS011;18147;51.952;6.146;2023-06-04T09:37:43;3.63;;;1.83;;
31537;SDS011;18147;51.952;6.146;2023-06-04T09:40:18;4.65;;;2.20;;
31537;SDS011;18147;51.952;6.146;2023-06-04T09:42:49;5.97;;;1.80;;
31537;SDS011;18147;51.952;6.146;2023-06-04T09:47:54;6.70;;;2.30;;
31537;SDS011;18147;51.952;6.146;2023-06-04T09:50:27;2.17;;;1.50;;
31537;SDS011;18147;51.952;6.146;2023-06-04T09:52:57;3.92;;;1.73;;
31537;SDS011;18147;51.952;6.146;2023-06-04T09:55:23;3.45;;;1.90;;
31537;SDS011;18147;51.952;6.146;2023-06-04T09:57:49;1.70;;;1.50;;
31537;SDS011;18147;51.952;6.146;2023-06-04T10:00:16;2.58;;;1.23;;
31537;SDS011;18147;51.952;6.146;2023-06-04T10:02:44;2.35;;;1.40;;
31537;SDS011;18147;51.952;6.146;2023-06-04T10:05:11;7.07;;;1.50;;
31537;SDS011;18147;51.952;6.146;2023-06-04T10:07:44;4.43;;;1.77;;
31537;SDS011;18147;51.952;6.146;2023-06-04T10:10:11;4.22;;;1.30;;
31537;SDS011;18147;51.952;6.146;2023-06-04T10:12:43;4.90;;;1.77;;
31537;SDS011;18147;51.952;6.146;2023-06-04T10:15:11;6.63;;;1.50;;
31537;SDS011;18147;51.952;6.146;2023-06-04T10:17:38;2.75;;;1.35;;
31537;SDS011;18147;51.952;6.146;2023-06-04T10:20:07;3.60;;;1.60;;
31537;SDS011;18147;51.952;6.146;2023-06-04T10:22:40;6.15;;;1.35;;
31537;SDS011;18147;51.952;6.146;2023-06-04T10:25:07;5.07;;;1.83;;
31537;SDS011;18147;51.952;6.146;2023-06-04T10:27:38;5.57;;;1.48;;
31537;SDS011;18147;51.952;6.146;2023-06-04T10:30:15;2.38;;;1.50;;
31537;SDS011;18147;51.952;6.146;2023-06-04T10:32:41;1.75;;;1.30;;
31537;SDS011;18147;51.952;6.146;2023-06-04T10:35:10;4.57;;;1.75;;
31537;SDS011;18147;51.952;6.146;2023-06-04T10:37:45;2.40;;;1.52;;
31537;SDS011;18147;51.952;6.146;2023-06-04T10:40:13;1.60;;;1.42;;
31537;SDS011;18147;51.952;6.146;2023-06-04T10:42:40;7.35;;;1.83;;
31537;SDS011;18147;51.952;6.146;2023-06-04T10:45:09;11.07;;;2.17;;
31537;SDS011;18147;51.952;6.146;2023-06-04T10:47:37;3.70;;;1.73;;
31537;SDS011;18147;51.952;6.146;2023-06-04T10:50:07;4.75;;;1.83;;
31537;SDS011;18147;51.952;6.146;2023-06-04T10:53:01;4.10;;;1.83;;
31537;SDS011;18147;51.952;6.146;2023-06-04T10:55:30;2.70;;;1.77;;
31537;SDS011;18147;51.952;6.146;2023-06-04T10:57:58;3.60;;;1.55;;
31537;SDS011;18147;51.952;6.146;2023-06-04T11:03:20;3.65;;;1.80;;
31537;SDS011;18147;51.952;6.146;2023-06-04T11:05:46;2.22;;;1.45;;
31537;SDS011;18147;51.952;6.146;2023-06-04T11:08:13;7.55;;;1.90;;
31537;SDS011;18147;51.952;6.146;2023-06-04T11:10:42;8.73;;;2.08;;
31537;SDS011;18147;51.952;6.146;2023-06-04T11:13:11;3.95;;;1.58;;
31537;SDS011;18147;51.952;6.146;2023-06-04T11:15:41;2.28;;;1.85;;
31537;SDS011;18147;51.952;6.146;2023-06-04T11:18:16;4.57;;;1.65;;
31537;SDS011;18147;51.952;6.146;2023-06-04T11:20:50;3.67;;;1.58;;
31537;SDS011;18147;51.952;6.146;2023-06-04T11:23:24;1.40;;;1.30;;
31537;SDS011;18147;51.952;6.146;2023-06-04T11:25:51;3.17;;;1.70;;
31537;SDS011;18147;51.952;6.146;2023-06-04T11:28:18;4.88;;;2.00;;
31537;SDS011;18147;51.952;6.146;2023-06-04T11:30:44;3.17;;;1.70;;
31537;SDS011;18147;51.952;6.146;2023-06-04T11:33:21;7.13;;;2.00;;
31537;SDS011;18147;51.952;6.146;2023-06-04T11:35:47;3.00;;;1.65;;
31537;SDS011;18147;51.952;6.146;2023-06-04T11:38:13;2.65;;;1.70;;
31537;SDS011;18147;51.952;6.146;2023-06-04T11:40:40;1.63;;;1.33;;
31537;SDS011;18147;51.952;6.146;2023-06-04T11:43:12;3.50;;;1.55;;
31537;SDS011;18147;51.952;6.146;2023-06-04T11:45:40;3.95;;;1.63;;
31537;SDS011;18147;51.952;6.146;2023-06-04T11:48:08;3.05;;;1.50;;
31537;SDS011;18147;51.952;6.146;2023-06-04T11:50:37;5.30;;;2.05;;
31537;SDS011;18147;51.952;6.146;2023-06-04T11:53:02;4.88;;;1.90;;
31537;SDS011;18147;51.952;6.146;2023-06-04T11:55:37;4.82;;;2.17;;
31537;SDS011;18147;51.952;6.146;2023-06-04T11:58:07;3.92;;;1.70;;
31537;SDS011;18147;51.952;6.146;2023-06-04T12:00:43;3.00;;;1.40;;
31537;SDS011;18147;51.952;6.146;2023-06-04T12:03:10;8.43;;;2.17;;
31537;SDS011;18147;51.952;6.146;2023-06-04T12:05:37;4.47;;;1.60;;
31537;SDS011;18147;51.952;6.146;2023-06-04T12:08:10;2.67;;;1.55;;
31537;SDS011;18147;51.952;6.146;2023-06-04T12:10:41;6.78;;;1.90;;
31537;SDS011;18147;51.952;6.146;2023-06-04T12:13:09;2.58;;;1.63;;
31537;SDS011;18147;51.952;6.146;2023-06-04T12:15:38;2.83;;;1.85;;
31537;SDS011;18147;51.952;6.146;2023-06-04T12:18:10;4.60;;;1.98;;
31537;SDS011;18147;51.952;6.146;2023-06-04T12:20:40;5.05;;;2.08;;
31537;SDS011;18147;51.952;6.146;2023-06-04T12:23:19;6.35;;;1.77;;
31537;SDS011;18147;51.952;6.146;2023-06-04T12:25:51;3.58;;;1.90;;
31537;SDS011;18147;51.952;6.146;2023-06-04T12:28:17;6.72;;;1.77;;
31537;SDS011;18147;51.952;6.146;2023-06-04T12:30:43;4.00;;;1.55;;
31537;SDS011;18147;51.952;6.146;2023-06-04T12:33:11;2.25;;;1.83;;
31537;SDS011;18147;51.952;6.146;2023-06-04T12:35:37;2.63;;;1.60;;
31537;SDS011;18147;51.952;6.146;2023-06-04T12:38:05;1.60;;;1.48;;
31537;SDS011;18147;51.952;6.146;2023-06-04T12:40:37;4.28;;;2.08;;
31537;SDS011;18147;51.952;6.146;2023-06-04T12:43:10;5.70;;;2.38;;
31537;SDS011;18147;51.952;6.146;2023-06-04T12:45:36;3.55;;;1.80;;
31537;SDS011;18147;51.952;6.146;2023-06-04T12:48:02;6.13;;;1.77;;
31537;SDS011;18147;51.952;6.146;2023-06-04T12:50:28;4.55;;;2.10;;
31537;SDS011;18147;51.952;6.146;2023-06-04T12:52:54;3.10;;;1.88;;
31537;SDS011;18147;51.952;6.146;2023-06-04T12:55:20;2.10;;;1.67;;
31537;SDS011;18147;51.952;6.146;2023-06-04T12:57:46;2.38;;;1.65;;
31537;SDS011;18147;51.952;6.146;2023-06-04T13:00:12;6.05;;;2.25;;
31537;SDS011;18147;51.952;6.146;2023-06-04T13:02:41;4.32;;;1.70;;
31537;SDS011;18147;51.952;6.146;2023-06-04T13:05:10;5.60;;;1.88;;
31537;SDS011;18147;51.952;6.146;2023-06-04T13:07:37;2.55;;;1.92;;
31537;SDS011;18147;51.952;6.146;2023-06-04T13:10:05;3.70;;;1.83;;
31537;SDS011;18147;51.952;6.146;2023-06-04T13:12:31;4.68;;;2.10;;
31537;SDS011;18147;51.952;6.146;2023-06-04T13:14:56;4.10;;;1.60;;
31537;SDS011;18147;51.952;6.146;2023-06-04T13:17:22;5.10;;;1.98;;
31537;SDS011;18147;51.952;6.146;2023-06-04T13:19:47;5.70;;;2.00;;
31537;SDS011;18147;51.952;6.146;2023-06-04T13:22:13;7.50;;;2.05;;
31537;SDS011;18147;51.952;6.146;2023-06-04T13:24:40;3.13;;;2.08;;
31537;SDS011;18147;51.952;6.146;2023-06-04T13:27:09;2.50;;;2.00;;
31537;SDS011;18147;51.952;6.146;2023-06-04T13:29:36;2.85;;;2.03;;
31537;SDS011;18147;51.952;6.146;2023-06-04T13:32:02;10.10;;;2.60;;
31537;SDS011;18147;51.952;6.146;2023-06-04T13:34:28;5.22;;;1.95;;
31537;SDS011;18147;51.952;6.146;2023-06-04T13:36:56;2.60;;;1.73;;
31537;SDS011;18147;51.952;6.146;2023-06-04T13:39:22;4.32;;;1.88;;
31537;SDS011;18147;51.952;6.146;2023-06-04T13:41:48;3.28;;;2.00;;
31537;SDS011;18147;51.952;6.146;2023-06-04T13:44:13;2.92;;;1.77;;
31537;SDS011;18147;51.952;6.146;2023-06-04T13:46:41;7.25;;;1.83;;
31537;SDS011;18147;51.952;6.146;2023-06-04T13:49:09;2.35;;;1.83;;
31537;SDS011;18147;51.952;6.146;2023-06-04T13:51:36;3.13;;;2.08;;
31537;SDS011;18147;51.952;6.146;2023-06-04T13:54:02;4.78;;;2.05;;
31537;SDS011;18147;51.952;6.146;2023-06-04T13:56:28;3.40;;;2.20;;
31537;SDS011;18147;51.952;6.146;2023-06-04T13:58:54;5.55;;;1.92;;
31537;SDS011;18147;51.952;6.146;2023-06-04T14:01:20;6.13;;;2.10;;
31537;SDS011;18147;51.952;6.146;2023-06-04T14:03:46;6.47;;;2.55;;
31537;SDS011;18147;51.952;6.146;2023-06-04T14:06:12;6.38;;;2.00;;
31537;SDS011;18147;51.952;6.146;2023-06-04T14:08:37;3.65;;;1.48;;
31537;SDS011;18147;51.952;6.146;2023-06-04T14:11:06;6.40;;;2.35;;
31537;SDS011;18147;51.952;6.146;2023-06-04T14:13:40;5.72;;;2.05;;
31537;SDS011;18147;51.952;6.146;2023-06-04T14:16:10;2.60;;;1.65;;
31537;SDS011;18147;51.952;6.146;2023-06-04T14:18:39;4.18;;;1.80;;
31537;SDS011;18147;51.952;6.146;2023-06-04T14:21:10;5.85;;;2.25;;
31537;SDS011;18147;51.952;6.146;2023-06-04T14:23:37;3.90;;;2.03;;
31537;SDS011;18147;51.952;6.146;2023-06-04T14:26:02;7.78;;;2.28;;
31537;SDS011;18147;51.952;6.146;2023-06-04T14:28:29;5.68;;;2.00;;
31537;SDS011;18147;51.952;6.146;2023-06-04T14:30:57;5.72;;;2.08;;
31537;SDS011;18147;51.952;6.146;2023-06-04T14:33:36;4.72;;;2.30;;
31537;SDS011;18147;51.952;6.146;2023-06-04T14:36:03;4.32;;;2.08;;
31537;SDS011;18147;51.952;6.146;2023-06-04T14:38:36;4.53;;;2.33;;
31537;SDS011;18147;51.952;6.146;2023-06-04T14:41:02;2.67;;;2.00;;
31537;SDS011;18147;51.952;6.146;2023-06-04T14:43:28;3.50;;;1.98;;
31537;SDS011;18147;51.952;6.146;2023-06-04T14:45:54;4.82;;;2.35;;
31537;SDS011;18147;51.952;6.146;2023-06-04T14:48:20;2.55;;;2.03;;
31537;SDS011;18147;51.952;6.146;2023-06-04T14:50:46;4.80;;;2.08;;
31537;SDS011;18147;51.952;6.146;2023-06-04T14:53:18;5.82;;;1.92;;
31537;SDS011;18147;51.952;6.146;2023-06-04T14:55:44;4.25;;;2.20;;
31537;SDS011;18147;51.952;6.146;2023-06-04T14:58:11;5.13;;;1.90;;
31537;SDS011;18147;51.952;6.146;2023-06-04T15:00:37;4.63;;;1.95;;
31537;SDS011;18147;51.952;6.146;2023-06-04T15:03:04;4.53;;;2.10;;
31537;SDS011;18147;51.952;6.146;2023-06-04T15:05:31;4.13;;;2.28;;
31537;SDS011;18147;51.952;6.146;2023-06-04T15:07:57;3.05;;;2.33;;
31537;SDS011;18147;51.952;6.146;2023-06-04T15:10:24;5.40;;;2.28;;